Neva Lux — UGZF — position and weather

sailwx.info

Track history (hours):
 
Tides and Currents Weather Stations Pressure Air Temp Water Temp Dewpoint Dewpoint Depression Visibility Wind Speed Wind Dir Waves Ship Positions

Neva Lux

Last reported at 2016-May-26 00:33 UTC. Time now 2016-May-26 00:41 UTC.
Position N 59°53' E 030°13'.

Length 65 m; draft 3.8 m.

MMSI: 273426540.

Date/timePositionNaut miles runAvg speedWind from/ knotsBaromVisibWave heightAir tempDewpointWater temp
2016-May-26 00:33N 59°53' E 030°13'0 0.0
2016-May-25 23:33N 59°53' E 030°13'0 0.0
2016-May-25 22:33N 59°53' E 030°13'0 0.0
2016-May-25 21:33N 59°53' E 030°13'0 0.0
2016-May-25 20:33N 59°53' E 030°13'0 0.0
2016-May-25 19:33N 59°53' E 030°13'0 0.0
2016-May-25 18:33N 59°53' E 030°13'0 0.0
2016-May-25 17:33N 59°53' E 030°13'0 0.0
2016-May-25 16:33N 59°53' E 030°13'1 0.7
2016-May-25 15:33N 59°53' E 030°12'1 0.5
2016-May-25 14:33N 59°52' E 030°13'0 0.0
2016-May-25 13:33N 59°52' E 030°13'0 0.0
2016-May-25 12:32N 59°52' E 030°13'0 0.0
2016-May-25 11:33N 59°52' E 030°13'0 0.0
2016-May-25 10:33N 59°52' E 030°13'0 0.0
2016-May-25 09:33N 59°52' E 030°13'0 0.0
2016-May-25 08:33N 59°52' E 030°13'0 0.0
2016-May-25 07:33N 59°52' E 030°13'0 0.0
2016-May-25 06:33N 59°52' E 030°13'0 0.5
2016-May-25 05:33N 59°53' E 030°13'0 0.0
2016-May-25 04:33N 59°53' E 030°13'0 0.0
2016-May-25 03:33N 59°53' E 030°13'0 0.0
2016-May-25 02:33N 59°53' E 030°13'0 0.0
2016-May-25 01:33N 59°53' E 030°13'0 0.0
2016-May-25 00:33N 59°53' E 030°13'0 0.0
2016-May-24 23:33N 59°53' E 030°13'0 0.0
2016-May-24 22:33N 59°53' E 030°13'0 0.1
2016-May-24 21:33N 59°53' E 030°13'1 0.8
2016-May-24 20:33N 59°53' E 030°12'0 0.0
2016-May-24 19:32N 59°53' E 030°12'0 0.0
2016-May-24 18:33N 59°53' E 030°12'0 0.0
2016-May-24 17:33N 59°53' E 030°12'0 0.0
2016-May-24 16:33N 59°53' E 030°12'0 0.1
2016-May-24 15:33N 59°53' E 030°12'6 6.2
2016-May-24 14:33N 59°55' E 030°00'9 3.1
2016-May-24 11:33N 59°59' E 029°43'0 0.0
2016-May-24 10:33N 59°59' E 029°43'0 0.0
2016-May-24 09:33N 59°59' E 029°43'0 0.0
2016-May-24 08:33N 59°59' E 029°43'0 0.1
2016-May-24 07:33N 59°59' E 029°43'0 0.0
2016-May-24 06:33N 59°59' E 029°43'0 0.0
2016-May-24 05:33N 59°59' E 029°43'0 0.0
2016-May-24 04:33N 59°59' E 029°43'0 0.0
2016-May-24 02:30N 59°59' E 029°43'0 0.0
2016-May-24 01:30N 59°59' E 029°43'0 0.0
2016-May-24 00:21N 59°59' E 029°43'0 0.0
2016-May-23 23:33N 59°59' E 029°43'0 0.0
2016-May-23 22:34N 59°59' E 029°43'0 0.0
2016-May-23 21:33N 59°59' E 029°43'0 0.0
2016-May-23 20:33N 59°59' E 029°43'0 0.0
2016-May-23 19:33N 59°59' E 029°43'0 0.0
2016-May-23 18:29N 59°59' E 029°43'0 0.0
2016-May-23 17:32N 59°59' E 029°43'0 0.0
2016-May-23 16:25N 59°59' E 029°43'3 3.4
2016-May-23 15:34N 59°58' E 029°48'7 7.4
2016-May-23 14:33N 59°56' E 030°03'4 4.5
2016-May-23 13:33N 59°57' E 030°11'0 0.0
2016-May-23 12:33N 59°57' E 030°11'0 0.0
2016-May-23 11:33N 59°57' E 030°11'0 0.0
2016-May-23 10:33N 59°57' E 030°11'0 0.0
2016-May-23 09:33N 59°57' E 030°11'0 0.0
2016-May-23 08:33N 59°57' E 030°11'0 0.0
2016-May-23 07:31N 59°57' E 030°11'2 2.3
2016-May-23 06:33N 59°57' E 030°07'9 8.9
2016-May-23 05:32N 59°58' E 029°49'3 1.4
2016-May-23 03:05N 59°59' E 029°43'0 0.0
2016-May-23 02:32N 59°59' E 029°43'0 0.0
2016-May-23 01:33N 59°59' E 029°43'0 0.0
2016-May-23 00:33N 59°59' E 029°43'0 0.0
2016-May-22 23:32N 59°59' E 029°43'0 0.0
2016-May-22 22:33N 59°59' E 029°43'0 0.0
2016-May-22 20:26N 59°59' E 029°43'0 0.0
2016-May-22 19:29N 59°59' E 029°43'3 2.8
2016-May-22 18:31N 59°58' E 029°48'9 9.5
2016-May-22 17:33N 59°54' E 030°05'5 4.7
2016-May-22 16:33N 59°52' E 030°13'0 0.0
2016-May-22 15:33N 59°52' E 030°13'0 0.0
2016-May-22 14:33N 59°52' E 030°13'0 0.0
2016-May-22 13:33N 59°52' E 030°13'0 0.0
2016-May-22 12:33N 59°52' E 030°13'0 0.0
2016-May-22 11:33N 59°52' E 030°13'0 0.0
2016-May-22 10:33N 59°52' E 030°13'0 0.0
2016-May-22 09:33N 59°52' E 030°13'0 0.0
2016-May-22 08:33N 59°52' E 030°13'0 0.0
2016-May-22 07:33N 59°52' E 030°13'0 0.5
2016-May-22 06:33N 59°52' E 030°12'0 0.0
2016-May-22 05:33N 59°52' E 030°12'0 0.0
2016-May-22 04:33N 59°52' E 030°12'0 0.0
2016-May-22 03:33N 59°52' E 030°12'0 0.0
2016-May-22 02:33N 59°52' E 030°12'0 0.0
2016-May-22 01:33N 59°52' E 030°12'0 0.0
2016-May-22 00:33N 59°52' E 030°12'0 0.0
2016-May-21 23:33N 59°52' E 030°12'0 0.0
2016-May-21 22:33N 59°52' E 030°12'0 0.0
2016-May-21 21:33N 59°52' E 030°12'0 0.0
2016-May-21 20:33N 59°52' E 030°12'1 0.6
2016-May-21 19:33N 59°53' E 030°13'0 0.1
2016-May-21 18:33N 59°53' E 030°13'0 0.0
2016-May-21 17:33N 59°53' E 030°13'0 0.0
2016-May-21 16:33N 59°53' E 030°13'0 0.0
2016-May-21 15:33N 59°53' E 030°13'0 0.0
2016-May-21 14:33N 59°53' E 030°13'3 2.8
2016-May-21 13:33N 59°55' E 030°14'0 0.1
2016-May-21 12:33N 59°55' E 030°14'0 0.0
2016-May-21 11:33N 59°55' E 030°14'0 0.0
2016-May-21 10:33N 59°55' E 030°14'1 0.6
2016-May-21 09:33N 59°55' E 030°15'2 2.4
2016-May-21 08:33N 59°53' E 030°13'0 0.0
2016-May-21 07:33N 59°53' E 030°13'0 0.0
2016-May-21 06:33N 59°53' E 030°13'0 0.0
2016-May-21 05:33N 59°53' E 030°13'0 0.0
2016-May-21 04:34N 59°53' E 030°13'0 0.0
2016-May-21 03:33N 59°53' E 030°13'0 0.0
2016-May-21 02:33N 59°53' E 030°13'0 0.0
2016-May-21 01:33N 59°53' E 030°13'0 0.0
2016-May-21 00:33N 59°53' E 030°13'0 0.0
2016-May-20 23:33N 59°53' E 030°13'0 0.0
2016-May-20 22:33N 59°53' E 030°13'0 0.0
2016-May-20 21:33N 59°53' E 030°13'0 0.0
2016-May-20 20:34N 59°53' E 030°13'0 0.0
2016-May-20 19:33N 59°53' E 030°13'0 0.0
2016-May-20 18:33N 59°53' E 030°13'0 0.0
2016-May-20 17:34N 59°53' E 030°13'0 0.0
2016-May-20 16:34N 59°53' E 030°13'0 0.0
2016-May-20 15:33N 59°53' E 030°13'0 0.0
2016-May-20 14:33N 59°53' E 030°13'0 0.0
2016-May-20 13:32N 59°53' E 030°13'0 0.0
2016-May-20 12:33N 59°53' E 030°13'0 0.0
2016-May-20 11:33N 59°53' E 030°13'0 0.0
2016-May-20 10:33N 59°53' E 030°13'0 0.0
2016-May-20 09:32N 59°53' E 030°13'0 0.0
2016-May-20 08:33N 59°53' E 030°13'0 0.0
2016-May-20 07:33N 59°53' E 030°13'0 0.4
2016-May-20 06:33N 59°52' E 030°13'0 0.0
2016-May-20 05:33N 59°52' E 030°13'0 0.0
2016-May-20 04:33N 59°52' E 030°13'0 0.0
2016-May-20 03:33N 59°52' E 030°13'0 0.0
2016-May-20 02:33N 59°52' E 030°13'0 0.0
2016-May-20 01:33N 59°52' E 030°13'0 0.0
2016-May-20 00:33N 59°52' E 030°13'0 0.0
2016-May-19 23:34N 59°52' E 030°13'0 0.0
2016-May-19 22:32N 59°52' E 030°13'0 0.0
2016-May-19 21:33N 59°52' E 030°13'0 0.0
2016-May-19 20:33N 59°52' E 030°13'0 0.0
2016-May-19 19:33N 59°52' E 030°13'0 0.4
2016-May-19 18:33N 59°53' E 030°13'0 0.0
2016-May-19 17:33N 59°53' E 030°13'0 0.0
2016-May-19 16:33N 59°53' E 030°13'0 0.0
2016-May-19 15:33N 59°53' E 030°13'0 0.0
2016-May-19 14:33N 59°53' E 030°13'0 0.0
2016-May-19 13:33N 59°53' E 030°13'0 0.0
2016-May-19 12:33N 59°53' E 030°13'0 0.0
2016-May-19 11:33N 59°53' E 030°13'2 2.4
2016-May-19 10:33N 59°55' E 030°15'0 0.0
2016-May-19 09:33N 59°55' E 030°15'0 0.0
2016-May-19 08:33N 59°55' E 030°15'0 0.0
2016-May-19 07:33N 59°55' E 030°15'0 0.0
2016-May-19 06:33N 59°55' E 030°15'0 0.0
2016-May-19 05:34N 59°55' E 030°15'0 0.0
2016-May-19 04:33N 59°55' E 030°15'0 0.0
2016-May-19 03:33N 59°55' E 030°15'3 2.9
2016-May-19 02:33N 59°52' E 030°13'0 0.0
2016-May-19 01:34N 59°52' E 030°13'0 0.0
2016-May-19 00:33N 59°52' E 030°13'0 0.0
2016-May-18 23:33N 59°52' E 030°13'0 0.0
2016-May-18 22:33N 59°52' E 030°13'0 0.0
2016-May-18 21:33N 59°52' E 030°13'0 0.4
2016-May-18 20:33N 59°52' E 030°12'0 0.0
2016-May-18 19:33N 59°52' E 030°12'0 0.0
2016-May-18 18:33N 59°52' E 030°12'0 0.0
2016-May-18 17:33N 59°52' E 030°12'0 0.0
2016-May-18 16:33N 59°52' E 030°12'0 0.0
2016-May-18 15:33N 59°52' E 030°12'3 3.0
2016-May-18 14:33N 59°55' E 030°15'1 0.6
2016-May-18 13:33N 59°56' E 030°14'0 0.0
2016-May-18 12:33N 59°56' E 030°14'0 0.0
2016-May-18 11:33N 59°56' E 030°14'0 0.0
2016-May-18 10:33N 59°56' E 030°14'2 1.6
2016-May-18 09:33N 59°54' E 030°13'1 1.4
2016-May-18 08:33N 59°53' E 030°13'0 0.0
2016-May-18 07:33N 59°53' E 030°13'0 0.0
2016-May-18 06:33N 59°53' E 030°13'0 0.0
2016-May-18 05:33N 59°53' E 030°13'0 0.0
2016-May-18 04:33N 59°53' E 030°13'0 0.0
2016-May-18 03:33N 59°53' E 030°13'0 0.0
2016-May-18 02:34N 59°53' E 030°13'0 0.0
2016-May-18 01:33N 59°53' E 030°13'0 0.0
2016-May-18 00:33N 59°53' E 030°13'0 0.0
2016-May-17 23:33N 59°53' E 030°13'0 0.0
2016-May-17 22:33N 59°53' E 030°13'0 0.0
2016-May-17 21:33N 59°53' E 030°13'0 0.0
2016-May-17 20:33N 59°53' E 030°13'0 0.0
2016-May-17 19:33N 59°53' E 030°13'0 0.0
2016-May-17 18:33N 59°53' E 030°13'0 0.0
2016-May-17 17:33N 59°53' E 030°13'0 0.0
2016-May-17 16:33N 59°53' E 030°13'0 0.0
2016-May-17 15:33N 59°53' E 030°13'0 0.0
2016-May-17 14:33N 59°53' E 030°13'0 0.0
2016-May-17 13:32N 59°53' E 030°13'0 0.0
2016-May-17 12:33N 59°53' E 030°13'0 0.0
2016-May-17 11:33N 59°53' E 030°13'0 0.0
2016-May-17 10:32N 59°53' E 030°13'0 0.0
2016-May-17 09:33N 59°53' E 030°13'0 0.0
2016-May-17 08:33N 59°53' E 030°13'0 0.0
2016-May-17 07:33N 59°53' E 030°13'0 0.0
2016-May-17 06:33N 59°53' E 030°13'0 0.0
2016-May-17 05:33N 59°53' E 030°13'0 0.0
2016-May-17 04:33N 59°53' E 030°13'0 0.0
2016-May-17 03:34N 59°53' E 030°13'0 0.0
2016-May-17 02:33N 59°53' E 030°13'0 0.0
2016-May-17 01:33N 59°53' E 030°13'1 0.8
2016-May-17 00:33N 59°53' E 030°13'0 0.0
2016-May-16 23:33N 59°53' E 030°13'0 0.0
2016-May-16 22:33N 59°53' E 030°13'0 0.0
2016-May-16 21:33N 59°53' E 030°13'0 0.0
2016-May-16 20:33N 59°53' E 030°13'0 0.0
2016-May-16 19:33N 59°53' E 030°13'0 0.0
2016-May-16 18:33N 59°53' E 030°13'0 0.0
2016-May-16 17:33N 59°53' E 030°13'1 0.8
2016-May-16 16:33N 59°53' E 030°13'0 0.0
2016-May-16 15:33N 59°53' E 030°13'0 0.0
2016-May-16 14:33N 59°53' E 030°13'0 0.0
2016-May-16 13:33N 59°53' E 030°13'0 0.0
2016-May-16 12:33N 59°53' E 030°13'0 0.4
2016-May-16 11:27N 59°52' E 030°13'0 0.0
2016-May-16 10:33N 59°52' E 030°13'0 0.0
2016-May-16 09:33N 59°52' E 030°13'0 0.0
2016-May-16 08:33N 59°52' E 030°13'0 0.0
2016-May-16 07:30N 59°52' E 030°13'0 0.0
2016-May-16 06:32N 59°52' E 030°13'0 0.0
2016-May-16 05:33N 59°52' E 030°13'0 0.0
2016-May-16 04:33N 59°52' E 030°13'0 0.0
2016-May-16 03:33N 59°52' E 030°13'0 0.0
2016-May-16 02:33N 59°52' E 030°13'0 0.0
2016-May-16 01:33N 59°52' E 030°13'  
Track history (hours):
 
Tides and Currents Weather Stations Pressure Air Temp Water Temp Dewpoint Dewpoint Depression Visibility Wind Speed Wind Dir Waves Ship Positions

Neva Lux

Last reported at 2016-May-26 00:33 UTC. Time now 2016-May-26 00:41 UTC.
Position N 59°53' E 030°13'.

Length 65 m; draft 3.8 m.

MMSI: 273426540.

Date/timePositionNaut miles runAvg speedWind from/ knotsBaromVisibWave heightAir tempDewpointWater temp
2016-May-26 00:33N 59°53' E 030°13'0 0.0
2016-May-25 23:33N 59°53' E 030°13'0 0.0
2016-May-25 22:33N 59°53' E 030°13'0 0.0
2016-May-25 21:33N 59°53' E 030°13'0 0.0
2016-May-25 20:33N 59°53' E 030°13'0 0.0
2016-May-25 19:33N 59°53' E 030°13'0 0.0
2016-May-25 18:33N 59°53' E 030°13'0 0.0
2016-May-25 17:33N 59°53' E 030°13'0 0.0
2016-May-25 16:33N 59°53' E 030°13'1 0.7
2016-May-25 15:33N 59°53' E 030°12'1 0.5
2016-May-25 14:33N 59°52' E 030°13'0 0.0
2016-May-25 13:33N 59°52' E 030°13'0 0.0
2016-May-25 12:32N 59°52' E 030°13'0 0.0
2016-May-25 11:33N 59°52' E 030°13'0 0.0
2016-May-25 10:33N 59°52' E 030°13'0 0.0
2016-May-25 09:33N 59°52' E 030°13'0 0.0
2016-May-25 08:33N 59°52' E 030°13'0 0.0
2016-May-25 07:33N 59°52' E 030°13'0 0.0
2016-May-25 06:33N 59°52' E 030°13'0 0.5
2016-May-25 05:33N 59°53' E 030°13'0 0.0
2016-May-25 04:33N 59°53' E 030°13'0 0.0
2016-May-25 03:33N 59°53' E 030°13'0 0.0
2016-May-25 02:33N 59°53' E 030°13'0 0.0
2016-May-25 01:33N 59°53' E 030°13'0 0.0
2016-May-25 00:33N 59°53' E 030°13'0 0.0
2016-May-24 23:33N 59°53' E 030°13'0 0.0
2016-May-24 22:33N 59°53' E 030°13'0 0.1
2016-May-24 21:33N 59°53' E 030°13'1 0.8
2016-May-24 20:33N 59°53' E 030°12'0 0.0
2016-May-24 19:32N 59°53' E 030°12'0 0.0
2016-May-24 18:33N 59°53' E 030°12'0 0.0
2016-May-24 17:33N 59°53' E 030°12'0 0.0
2016-May-24 16:33N 59°53' E 030°12'0 0.1
2016-May-24 15:33N 59°53' E 030°12'6 6.2
2016-May-24 14:33N 59°55' E 030°00'9 3.1
2016-May-24 11:33N 59°59' E 029°43'0 0.0
2016-May-24 10:33N 59°59' E 029°43'0 0.0
2016-May-24 09:33N 59°59' E 029°43'0 0.0
2016-May-24 08:33N 59°59' E 029°43'0 0.1
2016-May-24 07:33N 59°59' E 029°43'0 0.0
2016-May-24 06:33N 59°59' E 029°43'0 0.0
2016-May-24 05:33N 59°59' E 029°43'0 0.0
2016-May-24 04:33N 59°59' E 029°43'0 0.0
2016-May-24 02:30N 59°59' E 029°43'0 0.0
2016-May-24 01:30N 59°59' E 029°43'0 0.0
2016-May-24 00:21N 59°59' E 029°43'0 0.0
2016-May-23 23:33N 59°59' E 029°43'0 0.0
2016-May-23 22:34N 59°59' E 029°43'0 0.0
2016-May-23 21:33N 59°59' E 029°43'0 0.0
2016-May-23 20:33N 59°59' E 029°43'0 0.0
2016-May-23 19:33N 59°59' E 029°43'0 0.0
2016-May-23 18:29N 59°59' E 029°43'0 0.0
2016-May-23 17:32N 59°59' E 029°43'0 0.0
2016-May-23 16:25N 59°59' E 029°43'3 3.4
2016-May-23 15:34N 59°58' E 029°48'7 7.4
2016-May-23 14:33N 59°56' E 030°03'4 4.5
2016-May-23 13:33N 59°57' E 030°11'0 0.0
2016-May-23 12:33N 59°57' E 030°11'0 0.0
2016-May-23 11:33N 59°57' E 030°11'0 0.0
2016-May-23 10:33N 59°57' E 030°11'0 0.0
2016-May-23 09:33N 59°57' E 030°11'0 0.0
2016-May-23 08:33N 59°57' E 030°11'0 0.0
2016-May-23 07:31N 59°57' E 030°11'2 2.3
2016-May-23 06:33N 59°57' E 030°07'9 8.9
2016-May-23 05:32N 59°58' E 029°49'3 1.4
2016-May-23 03:05N 59°59' E 029°43'0 0.0
2016-May-23 02:32N 59°59' E 029°43'0 0.0
2016-May-23 01:33N 59°59' E 029°43'0 0.0
2016-May-23 00:33N 59°59' E 029°43'0 0.0
2016-May-22 23:32N 59°59' E 029°43'0 0.0
2016-May-22 22:33N 59°59' E 029°43'0 0.0
2016-May-22 20:26N 59°59' E 029°43'0 0.0
2016-May-22 19:29N 59°59' E 029°43'3 2.8
2016-May-22 18:31N 59°58' E 029°48'9 9.5
2016-May-22 17:33N 59°54' E 030°05'5 4.7
2016-May-22 16:33N 59°52' E 030°13'0 0.0
2016-May-22 15:33N 59°52' E 030°13'0 0.0
2016-May-22 14:33N 59°52' E 030°13'0 0.0
2016-May-22 13:33N 59°52' E 030°13'0 0.0
2016-May-22 12:33N 59°52' E 030°13'0 0.0
2016-May-22 11:33N 59°52' E 030°13'0 0.0
2016-May-22 10:33N 59°52' E 030°13'0 0.0
2016-May-22 09:33N 59°52' E 030°13'0 0.0
2016-May-22 08:33N 59°52' E 030°13'0 0.0
2016-May-22 07:33N 59°52' E 030°13'0 0.5
2016-May-22 06:33N 59°52' E 030°12'0 0.0
2016-May-22 05:33N 59°52' E 030°12'0 0.0
2016-May-22 04:33N 59°52' E 030°12'0 0.0
2016-May-22 03:33N 59°52' E 030°12'0 0.0
2016-May-22 02:33N 59°52' E 030°12'0 0.0
2016-May-22 01:33N 59°52' E 030°12'0 0.0
2016-May-22 00:33N 59°52' E 030°12'0 0.0
2016-May-21 23:33N 59°52' E 030°12'0 0.0
2016-May-21 22:33N 59°52' E 030°12'0 0.0
2016-May-21 21:33N 59°52' E 030°12'0 0.0
2016-May-21 20:33N 59°52' E 030°12'1 0.6
2016-May-21 19:33N 59°53' E 030°13'0 0.1
2016-May-21 18:33N 59°53' E 030°13'0 0.0
2016-May-21 17:33N 59°53' E 030°13'0 0.0
2016-May-21 16:33N 59°53' E 030°13'0 0.0
2016-May-21 15:33N 59°53' E 030°13'0 0.0
2016-May-21 14:33N 59°53' E 030°13'3 2.8
2016-May-21 13:33N 59°55' E 030°14'0 0.1
2016-May-21 12:33N 59°55' E 030°14'0 0.0
2016-May-21 11:33N 59°55' E 030°14'0 0.0
2016-May-21 10:33N 59°55' E 030°14'1 0.6
2016-May-21 09:33N 59°55' E 030°15'2 2.4
2016-May-21 08:33N 59°53' E 030°13'0 0.0
2016-May-21 07:33N 59°53' E 030°13'0 0.0
2016-May-21 06:33N 59°53' E 030°13'0 0.0
2016-May-21 05:33N 59°53' E 030°13'0 0.0
2016-May-21 04:34N 59°53' E 030°13'0 0.0
2016-May-21 03:33N 59°53' E 030°13'0 0.0
2016-May-21 02:33N 59°53' E 030°13'0 0.0
2016-May-21 01:33N 59°53' E 030°13'0 0.0
2016-May-21 00:33N 59°53' E 030°13'0 0.0
2016-May-20 23:33N 59°53' E 030°13'0 0.0
2016-May-20 22:33N 59°53' E 030°13'0 0.0
2016-May-20 21:33N 59°53' E 030°13'0 0.0
2016-May-20 20:34N 59°53' E 030°13'0 0.0
2016-May-20 19:33N 59°53' E 030°13'0 0.0
2016-May-20 18:33N 59°53' E 030°13'0 0.0
2016-May-20 17:34N 59°53' E 030°13'0 0.0
2016-May-20 16:34N 59°53' E 030°13'0 0.0
2016-May-20 15:33N 59°53' E 030°13'0 0.0
2016-May-20 14:33N 59°53' E 030°13'0 0.0
2016-May-20 13:32N 59°53' E 030°13'0 0.0
2016-May-20 12:33N 59°53' E 030°13'0 0.0
2016-May-20 11:33N 59°53' E 030°13'0 0.0
2016-May-20 10:33N 59°53' E 030°13'0 0.0
2016-May-20 09:32N 59°53' E 030°13'0 0.0
2016-May-20 08:33N 59°53' E 030°13'0 0.0
2016-May-20 07:33N 59°53' E 030°13'0 0.4
2016-May-20 06:33N 59°52' E 030°13'0 0.0
2016-May-20 05:33N 59°52' E 030°13'0 0.0
2016-May-20 04:33N 59°52' E 030°13'0 0.0
2016-May-20 03:33N 59°52' E 030°13'0 0.0
2016-May-20 02:33N 59°52' E 030°13'0 0.0
2016-May-20 01:33N 59°52' E 030°13'0 0.0
2016-May-20 00:33N 59°52' E 030°13'0 0.0
2016-May-19 23:34N 59°52' E 030°13'0 0.0
2016-May-19 22:32N 59°52' E 030°13'0 0.0
2016-May-19 21:33N 59°52' E 030°13'0 0.0
2016-May-19 20:33N 59°52' E 030°13'0 0.0
2016-May-19 19:33N 59°52' E 030°13'0 0.4
2016-May-19 18:33N 59°53' E 030°13'0 0.0
2016-May-19 17:33N 59°53' E 030°13'0 0.0
2016-May-19 16:33N 59°53' E 030°13'0 0.0
2016-May-19 15:33N 59°53' E 030°13'0 0.0
2016-May-19 14:33N 59°53' E 030°13'0 0.0
2016-May-19 13:33N 59°53' E 030°13'0 0.0
2016-May-19 12:33N 59°53' E 030°13'0 0.0
2016-May-19 11:33N 59°53' E 030°13'2 2.4
2016-May-19 10:33N 59°55' E 030°15'0 0.0
2016-May-19 09:33N 59°55' E 030°15'0 0.0
2016-May-19 08:33N 59°55' E 030°15'0 0.0
2016-May-19 07:33N 59°55' E 030°15'0 0.0
2016-May-19 06:33N 59°55' E 030°15'0 0.0
2016-May-19 05:34N 59°55' E 030°15'0 0.0
2016-May-19 04:33N 59°55' E 030°15'0 0.0
2016-May-19 03:33N 59°55' E 030°15'3 2.9
2016-May-19 02:33N 59°52' E 030°13'0 0.0
2016-May-19 01:34N 59°52' E 030°13'0 0.0
2016-May-19 00:33N 59°52' E 030°13'0 0.0
2016-May-18 23:33N 59°52' E 030°13'0 0.0
2016-May-18 22:33N 59°52' E 030°13'0 0.0
2016-May-18 21:33N 59°52' E 030°13'0 0.4
2016-May-18 20:33N 59°52' E 030°12'0 0.0
2016-May-18 19:33N 59°52' E 030°12'0 0.0
2016-May-18 18:33N 59°52' E 030°12'0 0.0
2016-May-18 17:33N 59°52' E 030°12'0 0.0
2016-May-18 16:33N 59°52' E 030°12'0 0.0
2016-May-18 15:33N 59°52' E 030°12'3 3.0
2016-May-18 14:33N 59°55' E 030°15'1 0.6
2016-May-18 13:33N 59°56' E 030°14'0 0.0
2016-May-18 12:33N 59°56' E 030°14'0 0.0
2016-May-18 11:33N 59°56' E 030°14'0 0.0
2016-May-18 10:33N 59°56' E 030°14'2 1.6
2016-May-18 09:33N 59°54' E 030°13'1 1.4
2016-May-18 08:33N 59°53' E 030°13'0 0.0
2016-May-18 07:33N 59°53' E 030°13'0 0.0
2016-May-18 06:33N 59°53' E 030°13'0 0.0
2016-May-18 05:33N 59°53' E 030°13'0 0.0
2016-May-18 04:33N 59°53' E 030°13'0 0.0
2016-May-18 03:33N 59°53' E 030°13'0 0.0
2016-May-18 02:34N 59°53' E 030°13'0 0.0
2016-May-18 01:33N 59°53' E 030°13'0 0.0
2016-May-18 00:33N 59°53' E 030°13'0 0.0
2016-May-17 23:33N 59°53' E 030°13'0 0.0
2016-May-17 22:33N 59°53' E 030°13'0 0.0
2016-May-17 21:33N 59°53' E 030°13'0 0.0
2016-May-17 20:33N 59°53' E 030°13'0 0.0
2016-May-17 19:33N 59°53' E 030°13'0 0.0
2016-May-17 18:33N 59°53' E 030°13'0 0.0
2016-May-17 17:33N 59°53' E 030°13'0 0.0
2016-May-17 16:33N 59°53' E 030°13'0 0.0
2016-May-17 15:33N 59°53' E 030°13'0 0.0
2016-May-17 14:33N 59°53' E 030°13'0 0.0
2016-May-17 13:32N 59°53' E 030°13'0 0.0
2016-May-17 12:33N 59°53' E 030°13'0 0.0
2016-May-17 11:33N 59°53' E 030°13'0 0.0
2016-May-17 10:32N 59°53' E 030°13'0 0.0
2016-May-17 09:33N 59°53' E 030°13'0 0.0
2016-May-17 08:33N 59°53' E 030°13'0 0.0
2016-May-17 07:33N 59°53' E 030°13'0 0.0
2016-May-17 06:33N 59°53' E 030°13'0 0.0
2016-May-17 05:33N 59°53' E 030°13'0 0.0
2016-May-17 04:33N 59°53' E 030°13'0 0.0
2016-May-17 03:34N 59°53' E 030°13'0 0.0
2016-May-17 02:33N 59°53' E 030°13'0 0.0
2016-May-17 01:33N 59°53' E 030°13'1 0.8
2016-May-17 00:33N 59°53' E 030°13'0 0.0
2016-May-16 23:33N 59°53' E 030°13'0 0.0
2016-May-16 22:33N 59°53' E 030°13'0 0.0
2016-May-16 21:33N 59°53' E 030°13'0 0.0
2016-May-16 20:33N 59°53' E 030°13'0 0.0
2016-May-16 19:33N 59°53' E 030°13'0 0.0
2016-May-16 18:33N 59°53' E 030°13'0 0.0
2016-May-16 17:33N 59°53' E 030°13'1 0.8
2016-May-16 16:33N 59°53' E 030°13'0 0.0
2016-May-16 15:33N 59°53' E 030°13'0 0.0
2016-May-16 14:33N 59°53' E 030°13'0 0.0
2016-May-16 13:33N 59°53' E 030°13'0 0.0
2016-May-16 12:33N 59°53' E 030°13'0 0.4
2016-May-16 11:27N 59°52' E 030°13'0 0.0
2016-May-16 10:33N 59°52' E 030°13'0 0.0
2016-May-16 09:33N 59°52' E 030°13'0 0.0
2016-May-16 08:33N 59°52' E 030°13'0 0.0
2016-May-16 07:30N 59°52' E 030°13'0 0.0
2016-May-16 06:32N 59°52' E 030°13'0 0.0
2016-May-16 05:33N 59°52' E 030°13'0 0.0
2016-May-16 04:33N 59°52' E 030°13'0 0.0
2016-May-16 03:33N 59°52' E 030°13'0 0.0
2016-May-16 02:33N 59°52' E 030°13'0 0.0
2016-May-16 01:33N 59°52' E 030°13'  

Dump ship's entire track history